sensor_id;sensor_type;location;lat;lon;timestamp;temperature;humidity
6843;DHT22;3460;52.028;8.916;2023-07-20T00:01:51;16.20;99.90
6843;DHT22;3460;52.028;8.916;2023-07-20T00:04:17;16.10;99.90
6843;DHT22;3460;52.028;8.916;2023-07-20T00:06:45;16.10;99.90
6843;DHT22;3460;52.028;8.916;2023-07-20T00:09:12;16.10;99.90
6843;DHT22;3460;52.028;8.916;2023-07-20T00:11:39;16.10;99.90
6843;DHT22;3460;52.028;8.916;2023-07-20T00:14:06;16.10;99.90
6843;DHT22;3460;52.028;8.916;2023-07-20T00:16:33;16.00;99.90
6843;DHT22;3460;52.028;8.916;2023-07-20T00:19:00;16.00;99.90
6843;DHT22;3460;52.028;8.916;2023-07-20T00:21:27;16.00;99.90
6843;DHT22;3460;52.028;8.916;2023-07-20T00:23:55;16.00;99.90
6843;DHT22;3460;52.028;8.916;2023-07-20T00:26:22;16.00;99.90
6843;DHT22;3460;52.028;8.916;2023-07-20T00:28:50;16.00;99.90
6843;DHT22;3460;52.028;8.916;2023-07-20T00:31:17;16.10;99.90
6843;DHT22;3460;52.028;8.916;2023-07-20T00:33:44;16.00;99.90
6843;DHT22;3460;52.028;8.916;2023-07-20T00:36:11;16.00;99.90
6843;DHT22;3460;52.028;8.916;2023-07-20T00:38:38;15.90;99.90
6843;DHT22;3460;52.028;8.916;2023-07-20T00:41:06;16.00;99.90
6843;DHT22;3460;52.028;8.916;2023-07-20T00:43:33;15.90;99.90
6843;DHT22;3460;52.028;8.916;2023-07-20T00:46:00;15.90;99.90
6843;DHT22;3460;52.028;8.916;2023-07-20T00:48:28;15.90;99.90
6843;DHT22;3460;52.028;8.916;2023-07-20T00:50:55;15.90;99.90
6843;DHT22;3460;52.028;8.916;2023-07-20T00:53:23;15.90;99.90
6843;DHT22;3460;52.028;8.916;2023-07-20T00:55:50;15.90;99.90
6843;DHT22;3460;52.028;8.916;2023-07-20T00:58:18;15.90;99.90
6843;DHT22;3460;52.028;8.916;2023-07-20T01:00:45;15.90;99.90
6843;DHT22;3460;52.028;8.916;2023-07-20T01:03:12;15.90;99.90
6843;DHT22;3460;52.028;8.916;2023-07-20T01:05:44;15.90;99.90
6843;DHT22;3460;52.028;8.916;2023-07-20T01:08:20;15.90;99.90
6843;DHT22;3460;52.028;8.916;2023-07-20T01:10:55;15.90;99.90
6843;DHT22;3460;52.028;8.916;2023-07-20T01:13:25;15.90;99.90
6843;DHT22;3460;52.028;8.916;2023-07-20T01:15:57;15.90;99.90
6843;DHT22;3460;52.028;8.916;2023-07-20T01:18:27;15.90;99.90
6843;DHT22;3460;52.028;8.916;2023-07-20T01:20:59;15.90;99.90
6843;DHT22;3460;52.028;8.916;2023-07-20T01:23:37;15.90;99.90
6843;DHT22;3460;52.028;8.916;2023-07-20T01:26:27;15.90;99.90
6843;DHT22;3460;52.028;8.916;2023-07-20T01:29:15;15.90;99.90
6843;DHT22;3460;52.028;8.916;2023-07-20T01:31:47;15.90;99.90
6843;DHT22;3460;52.028;8.916;2023-07-20T01:34:17;15.90;99.90
6843;DHT22;3460;52.028;8.916;2023-07-20T01:36:45;15.90;99.90
6843;DHT22;3460;52.028;8.916;2023-07-20T01:39:13;15.90;99.90
6843;DHT22;3460;52.028;8.916;2023-07-20T01:41:40;15.80;99.90
6843;DHT22;3460;52.028;8.916;2023-07-20T01:44:06;15.80;99.90
6843;DHT22;3460;52.028;8.916;2023-07-20T01:46:33;15.80;99.90
6843;DHT22;3460;52.028;8.916;2023-07-20T01:49:02;15.70;99.90
6843;DHT22;3460;52.028;8.916;2023-07-20T01:51:29;15.70;99.90
6843;DHT22;3460;52.028;8.916;2023-07-20T01:53:55;15.60;99.90
6843;DHT22;3460;52.028;8.916;2023-07-20T01:56:22;15.60;99.90
6843;DHT22;3460;52.028;8.916;2023-07-20T01:58:49;15.60;99.90
6843;DHT22;3460;52.028;8.916;2023-07-20T02:01:16;15.60;99.90
6843;DHT22;3460;52.028;8.916;2023-07-20T02:03:43;15.60;99.90
6843;DHT22;3460;52.028;8.916;2023-07-20T02:06:11;15.60;99.90
6843;DHT22;3460;52.028;8.916;2023-07-20T02:08:38;15.60;99.90
6843;DHT22;3460;52.028;8.916;2023-07-20T02:11:04;15.60;99.90
6843;DHT22;3460;52.028;8.916;2023-07-20T02:13:31;15.60;99.90
6843;DHT22;3460;52.028;8.916;2023-07-20T02:15:58;15.50;99.90
6843;DHT22;3460;52.028;8.916;2023-07-20T02:18:25;15.50;99.90
6843;DHT22;3460;52.028;8.916;2023-07-20T02:20:53;15.60;99.90
6843;DHT22;3460;52.028;8.916;2023-07-20T02:23:21;15.50;99.90
6843;DHT22;3460;52.028;8.916;2023-07-20T02:25:49;15.50;99.90
6843;DHT22;3460;52.028;8.916;2023-07-20T02:28:16;15.50;99.90
6843;DHT22;3460;52.028;8.916;2023-07-20T02:30:43;15.50;99.90
6843;DHT22;3460;52.028;8.916;2023-07-20T02:33:09;15.50;99.90
6843;DHT22;3460;52.028;8.916;2023-07-20T02:35:36;15.50;99.90
6843;DHT22;3460;52.028;8.916;2023-07-20T02:38:03;15.50;99.90
6843;DHT22;3460;52.028;8.916;2023-07-20T02:40:31;15.40;99.90
6843;DHT22;3460;52.028;8.916;2023-07-20T02:42:58;15.40;99.90
6843;DHT22;3460;52.028;8.916;2023-07-20T02:45:25;15.50;99.90
6843;DHT22;3460;52.028;8.916;2023-07-20T02:47:52;15.40;99.90
6843;DHT22;3460;52.028;8.916;2023-07-20T02:50:19;15.50;99.90
6843;DHT22;3460;52.028;8.916;2023-07-20T02:52:45;15.50;99.90
6843;DHT22;3460;52.028;8.916;2023-07-20T02:55:12;15.50;99.90
6843;DHT22;3460;52.028;8.916;2023-07-20T02:57:40;15.60;99.90
6843;DHT22;3460;52.028;8.916;2023-07-20T03:00:08;15.60;99.90
6843;DHT22;3460;52.028;8.916;2023-07-20T03:02:37;15.60;99.90
6843;DHT22;3460;52.028;8.916;2023-07-20T03:05:04;15.60;99.90
6843;DHT22;3460;52.028;8.916;2023-07-20T03:07:32;15.60;99.90
6843;DHT22;3460;52.028;8.916;2023-07-20T03:09:59;15.60;99.90
6843;DHT22;3460;52.028;8.916;2023-07-20T03:12:26;15.70;99.90
6843;DHT22;3460;52.028;8.916;2023-07-20T03:14:54;15.70;99.90
6843;DHT22;3460;52.028;8.916;2023-07-20T03:17:22;15.70;99.90
6843;DHT22;3460;52.028;8.916;2023-07-20T03:19:49;15.70;99.90
6843;DHT22;3460;52.028;8.916;2023-07-20T03:22:16;15.60;99.90
6843;DHT22;3460;52.028;8.916;2023-07-20T03:24:43;15.70;99.90
6843;DHT22;3460;52.028;8.916;2023-07-20T03:27:09;15.70;99.90
6843;DHT22;3460;52.028;8.916;2023-07-20T03:29:36;15.70;99.90
6843;DHT22;3460;52.028;8.916;2023-07-20T03:32:05;15.70;99.90
6843;DHT22;3460;52.028;8.916;2023-07-20T03:34:32;15.70;99.90
6843;DHT22;3460;52.028;8.916;2023-07-20T03:36:59;15.70;99.90
6843;DHT22;3460;52.028;8.916;2023-07-20T03:39:26;15.70;99.90
6843;DHT22;3460;52.028;8.916;2023-07-20T03:41:54;15.70;99.90
6843;DHT22;3460;52.028;8.916;2023-07-20T03:44:20;15.70;99.90
6843;DHT22;3460;52.028;8.916;2023-07-20T03:46:47;15.70;99.90
6843;DHT22;3460;52.028;8.916;2023-07-20T03:49:15;15.80;99.90
6843;DHT22;3460;52.028;8.916;2023-07-20T03:51:43;15.70;99.90
6843;DHT22;3460;52.028;8.916;2023-07-20T03:54:10;15.50;99.90
6843;DHT22;3460;52.028;8.916;2023-07-20T03:56:37;15.40;99.90
6843;DHT22;3460;52.028;8.916;2023-07-20T03:59:04;15.30;99.90
6843;DHT22;3460;52.028;8.916;2023-07-20T04:01:31;15.10;99.90
6843;DHT22;3460;52.028;8.916;2023-07-20T04:04:04;15.00;99.90
6843;DHT22;3460;52.028;8.916;2023-07-20T04:06:32;15.00;99.90
6843;DHT22;3460;52.028;8.916;2023-07-20T04:08:59;14.90;99.90
6843;DHT22;3460;52.028;8.916;2023-07-20T04:11:26;14.90;99.90
6843;DHT22;3460;52.028;8.916;2023-07-20T04:13:52;14.90;99.90
6843;DHT22;3460;52.028;8.916;2023-07-20T04:16:19;14.80;99.90
6843;DHT22;3460;52.028;8.916;2023-07-20T04:18:46;14.80;99.90
6843;DHT22;3460;52.028;8.916;2023-07-20T04:21:13;14.80;99.90
6843;DHT22;3460;52.028;8.916;2023-07-20T04:23:41;14.70;99.90
6843;DHT22;3460;52.028;8.916;2023-07-20T04:26:08;14.60;99.90
6843;DHT22;3460;52.028;8.916;2023-07-20T04:28:35;14.60;99.90
6843;DHT22;3460;52.028;8.916;2023-07-20T04:31:11;14.60;99.90
6843;DHT22;3460;52.028;8.916;2023-07-20T04:33:38;14.60;99.90
6843;DHT22;3460;52.028;8.916;2023-07-20T04:36:05;14.50;99.90
6843;DHT22;3460;52.028;8.916;2023-07-20T04:38:32;14.50;99.90
6843;DHT22;3460;52.028;8.916;2023-07-20T04:41:00;14.40;99.90
6843;DHT22;3460;52.028;8.916;2023-07-20T04:43:29;14.40;99.90
6843;DHT22;3460;52.028;8.916;2023-07-20T04:45:56;14.40;99.90
6843;DHT22;3460;52.028;8.916;2023-07-20T04:48:24;14.40;99.90
6843;DHT22;3460;52.028;8.916;2023-07-20T04:50:50;14.40;99.90
6843;DHT22;3460;52.028;8.916;2023-07-20T04:53:17;14.40;99.90
6843;DHT22;3460;52.028;8.916;2023-07-20T04:55:48;14.40;99.90
6843;DHT22;3460;52.028;8.916;2023-07-20T04:58:17;14.50;99.90
6843;DHT22;3460;52.028;8.916;2023-07-20T05:00:44;14.50;99.90
6843;DHT22;3460;52.028;8.916;2023-07-20T05:03:11;14.50;99.90
6843;DHT22;3460;52.028;8.916;2023-07-20T05:05:38;14.50;99.90
6843;DHT22;3460;52.028;8.916;2023-07-20T05:08:05;14.50;99.90
6843;DHT22;3460;52.028;8.916;2023-07-20T05:10:32;14.50;99.90
6843;DHT22;3460;52.028;8.916;2023-07-20T05:12:59;14.50;99.90
6843;DHT22;3460;52.028;8.916;2023-07-20T05:15:27;14.50;99.90
6843;DHT22;3460;52.028;8.916;2023-07-20T05:17:54;14.50;99.90
6843;DHT22;3460;52.028;8.916;2023-07-20T05:20:21;14.50;99.90
6843;DHT22;3460;52.028;8.916;2023-07-20T05:22:48;14.50;99.90
6843;DHT22;3460;52.028;8.916;2023-07-20T05:25:15;14.50;99.90
6843;DHT22;3460;52.028;8.916;2023-07-20T05:27:44;14.60;99.90
6843;DHT22;3460;52.028;8.916;2023-07-20T05:30:12;14.60;99.90
6843;DHT22;3460;52.028;8.916;2023-07-20T05:32:40;14.60;99.90
6843;DHT22;3460;52.028;8.916;2023-07-20T05:35:07;14.70;99.90
6843;DHT22;3460;52.028;8.916;2023-07-20T05:37:37;14.60;99.90
6843;DHT22;3460;52.028;8.916;2023-07-20T05:40:05;14.60;99.90
6843;DHT22;3460;52.028;8.916;2023-07-20T05:42:33;14.60;99.90
6843;DHT22;3460;52.028;8.916;2023-07-20T05:45:00;14.70;99.90
6843;DHT22;3460;52.028;8.916;2023-07-20T05:47:26;14.70;99.90
6843;DHT22;3460;52.028;8.916;2023-07-20T05:49:55;14.70;99.90
6843;DHT22;3460;52.028;8.916;2023-07-20T05:52:22;14.80;99.90
6843;DHT22;3460;52.028;8.916;2023-07-20T05:54:49;14.70;99.90
6843;DHT22;3460;52.028;8.916;2023-07-20T05:57:15;14.70;99.90
6843;DHT22;3460;52.028;8.916;2023-07-20T05:59:42;14.80;99.90
6843;DHT22;3460;52.028;8.916;2023-07-20T06:02:09;14.80;99.90
6843;DHT22;3460;52.028;8.916;2023-07-20T06:04:38;14.80;99.90
6843;DHT22;3460;52.028;8.916;2023-07-20T06:07:07;14.80;99.90
6843;DHT22;3460;52.028;8.916;2023-07-20T06:09:34;14.90;99.90
6843;DHT22;3460;52.028;8.916;2023-07-20T06:12:01;14.90;99.90
6843;DHT22;3460;52.028;8.916;2023-07-20T06:14:28;14.90;99.90
6843;DHT22;3460;52.028;8.916;2023-07-20T06:16:55;14.90;99.90
6843;DHT22;3460;52.028;8.916;2023-07-20T06:19:22;15.00;99.90
6843;DHT22;3460;52.028;8.916;2023-07-20T06:21:49;15.00;99.90
6843;DHT22;3460;52.028;8.916;2023-07-20T06:24:17;15.10;99.90
6843;DHT22;3460;52.028;8.916;2023-07-20T06:26:44;15.20;99.90
6843;DHT22;3460;52.028;8.916;2023-07-20T06:29:11;15.20;99.90
6843;DHT22;3460;52.028;8.916;2023-07-20T06:31:38;15.20;99.90
6843;DHT22;3460;52.028;8.916;2023-07-20T06:34:05;15.20;99.90
6843;DHT22;3460;52.028;8.916;2023-07-20T06:36:31;15.30;99.90
6843;DHT22;3460;52.028;8.916;2023-07-20T06:38:58;15.20;99.90
6843;DHT22;3460;52.028;8.916;2023-07-20T06:41:27;15.30;99.90
6843;DHT22;3460;52.028;8.916;2023-07-20T06:43:54;15.30;99.90
6843;DHT22;3460;52.028;8.916;2023-07-20T06:46:24;15.30;99.90
6843;DHT22;3460;52.028;8.916;2023-07-20T06:48:51;15.30;99.90
6843;DHT22;3460;52.028;8.916;2023-07-20T06:51:18;15.30;99.90
6843;DHT22;3460;52.028;8.916;2023-07-20T06:53:44;15.30;99.90
6843;DHT22;3460;52.028;8.916;2023-07-20T06:56:11;15.50;99.90
6843;DHT22;3460;52.028;8.916;2023-07-20T06:58:40;15.50;99.90
6843;DHT22;3460;52.028;8.916;2023-07-20T07:01:08;15.50;99.90
6843;DHT22;3460;52.028;8.916;2023-07-20T07:03:35;15.50;99.90
6843;DHT22;3460;52.028;8.916;2023-07-20T07:06:02;15.60;99.90
6843;DHT22;3460;52.028;8.916;2023-07-20T07:08:29;15.80;99.90
6843;DHT22;3460;52.028;8.916;2023-07-20T07:10:56;15.80;99.90
6843;DHT22;3460;52.028;8.916;2023-07-20T07:13:23;15.80;99.90
6843;DHT22;3460;52.028;8.916;2023-07-20T07:15:51;15.90;99.90
6843;DHT22;3460;52.028;8.916;2023-07-20T07:18:18;16.10;99.90
6843;DHT22;3460;52.028;8.916;2023-07-20T07:20:50;16.20;99.90
6843;DHT22;3460;52.028;8.916;2023-07-20T07:23:17;16.40;99.90
6843;DHT22;3460;52.028;8.916;2023-07-20T07:25:45;16.40;99.90
6843;DHT22;3460;52.028;8.916;2023-07-20T07:28:12;16.60;99.90
6843;DHT22;3460;52.028;8.916;2023-07-20T07:30:39;16.50;99.90
6843;DHT22;3460;52.028;8.916;2023-07-20T07:33:07;16.40;99.90
6843;DHT22;3460;52.028;8.916;2023-07-20T07:35:34;16.30;99.90
6843;DHT22;3460;52.028;8.916;2023-07-20T07:38:01;16.20;99.90
6843;DHT22;3460;52.028;8.916;2023-07-20T07:40:27;16.20;99.90
6843;DHT22;3460;52.028;8.916;2023-07-20T07:42:54;16.40;99.90
6843;DHT22;3460;52.028;8.916;2023-07-20T07:45:21;16.50;99.90
6843;DHT22;3460;52.028;8.916;2023-07-20T07:47:48;16.60;99.90
6843;DHT22;3460;52.028;8.916;2023-07-20T07:50:16;16.80;99.90
6843;DHT22;3460;52.028;8.916;2023-07-20T07:52:43;16.90;99.90
6843;DHT22;3460;52.028;8.916;2023-07-20T07:55:09;17.10;99.90
6843;DHT22;3460;52.028;8.916;2023-07-20T07:57:36;17.20;99.90
6843;DHT22;3460;52.028;8.916;2023-07-20T08:00:04;17.20;99.90
6843;DHT22;3460;52.028;8.916;2023-07-20T08:02:36;17.30;99.90
6843;DHT22;3460;52.028;8.916;2023-07-20T08:05:03;17.30;99.90
6843;DHT22;3460;52.028;8.916;2023-07-20T08:07:31;17.30;99.90
6843;DHT22;3460;52.028;8.916;2023-07-20T08:09:58;17.20;99.90
6843;DHT22;3460;52.028;8.916;2023-07-20T08:12:26;17.10;99.90
6843;DHT22;3460;52.028;8.916;2023-07-20T08:14:53;16.80;99.90
6843;DHT22;3460;52.028;8.916;2023-07-20T08:17:19;16.60;99.90
6843;DHT22;3460;52.028;8.916;2023-07-20T08:19:46;16.50;99.90
6843;DHT22;3460;52.028;8.916;2023-07-20T08:22:13;16.50;99.90
6843;DHT22;3460;52.028;8.916;2023-07-20T08:24:42;16.80;99.90
6843;DHT22;3460;52.028;8.916;2023-07-20T08:27:09;17.20;99.90
6843;DHT22;3460;52.028;8.916;2023-07-20T08:29:36;17.30;99.90
6843;DHT22;3460;52.028;8.916;2023-07-20T08:32:04;17.60;99.90
6843;DHT22;3460;52.028;8.916;2023-07-20T08:34:31;17.80;99.90
6843;DHT22;3460;52.028;8.916;2023-07-20T08:36:58;18.00;99.90
6843;DHT22;3460;52.028;8.916;2023-07-20T08:39:25;18.10;99.90
6843;DHT22;3460;52.028;8.916;2023-07-20T08:41:55;17.90;99.90
6843;DHT22;3460;52.028;8.916;2023-07-20T08:44:22;18.10;99.90
6843;DHT22;3460;52.028;8.916;2023-07-20T08:46:49;18.00;99.90
6843;DHT22;3460;52.028;8.916;2023-07-20T08:49:16;17.90;98.50
6843;DHT22;3460;52.028;8.916;2023-07-20T08:51:46;18.00;1.00
6843;DHT22;3460;52.028;8.916;2023-07-20T08:54:13;18.10;99.90
6843;DHT22;3460;52.028;8.916;2023-07-20T08:56:41;18.30;79.70
6843;DHT22;3460;52.028;8.916;2023-07-20T08:59:10;18.70;20.40
6843;DHT22;3460;52.028;8.916;2023-07-20T09:01:39;18.60;1.00
6843;DHT22;3460;52.028;8.916;2023-07-20T09:04:07;18.70;1.00
6843;DHT22;3460;52.028;8.916;2023-07-20T09:06:35;18.80;99.90
6843;DHT22;3460;52.028;8.916;2023-07-20T09:09:02;19.00;99.90
6843;DHT22;3460;52.028;8.916;2023-07-20T09:11:29;18.90;1.00
6843;DHT22;3460;52.028;8.916;2023-07-20T09:14:04;18.80;1.00
6843;DHT22;3460;52.028;8.916;2023-07-20T09:16:32;18.70;1.00
6843;DHT22;3460;52.028;8.916;2023-07-20T09:18:59;18.40;1.00
6843;DHT22;3460;52.028;8.916;2023-07-20T09:21:29;18.20;1.00
6843;DHT22;3460;52.028;8.916;2023-07-20T09:23:56;18.10;1.00
6843;DHT22;3460;52.028;8.916;2023-07-20T09:26:23;18.00;1.00
6843;DHT22;3460;52.028;8.916;2023-07-20T09:28:52;18.30;1.00
6843;DHT22;3460;52.028;8.916;2023-07-20T09:31:21;18.40;1.00
6843;DHT22;3460;52.028;8.916;2023-07-20T09:33:52;18.70;99.90
6843;DHT22;3460;52.028;8.916;2023-07-20T09:36:19;18.70;99.90
6843;DHT22;3460;52.028;8.916;2023-07-20T09:38:46;18.70;99.90
6843;DHT22;3460;52.028;8.916;2023-07-20T09:41:13;18.80;99.90
6843;DHT22;3460;52.028;8.916;2023-07-20T09:43:41;19.00;99.90
6843;DHT22;3460;52.028;8.916;2023-07-20T09:46:08;19.00;99.90
6843;DHT22;3460;52.028;8.916;2023-07-20T09:48:35;18.70;99.90
6843;DHT22;3460;52.028;8.916;2023-07-20T09:51:03;18.50;99.90
6843;DHT22;3460;52.028;8.916;2023-07-20T09:53:33;18.70;1.00
6843;DHT22;3460;52.028;8.916;2023-07-20T09:56:00;19.00;1.00
6843;DHT22;3460;52.028;8.916;2023-07-20T09:58:29;19.00;99.90
6843;DHT22;3460;52.028;8.916;2023-07-20T10:00:57;19.00;99.90
6843;DHT22;3460;52.028;8.916;2023-07-20T10:03:29;19.10;99.90
6843;DHT22;3460;52.028;8.916;2023-07-20T10:05:57;19.20;99.90
6843;DHT22;3460;52.028;8.916;2023-07-20T10:08:27;19.20;99.90
6843;DHT22;3460;52.028;8.916;2023-07-20T10:10:57;19.30;99.90
6843;DHT22;3460;52.028;8.916;2023-07-20T10:13:26;19.60;99.90
6843;DHT22;3460;52.028;8.916;2023-07-20T10:15:56;19.70;99.90
6843;DHT22;3460;52.028;8.916;2023-07-20T10:18:29;19.80;99.90
6843;DHT22;3460;52.028;8.916;2023-07-20T10:20:57;19.80;99.90
6843;DHT22;3460;52.028;8.916;2023-07-20T10:23:29;19.90;69.50
6843;DHT22;3460;52.028;8.916;2023-07-20T10:25:57;20.30;99.90
6843;DHT22;3460;52.028;8.916;2023-07-20T10:28:24;20.30;99.90
6843;DHT22;3460;52.028;8.916;2023-07-20T10:30:51;20.20;36.30
6843;DHT22;3460;52.028;8.916;2023-07-20T10:33:18;20.20;1.00
6843;DHT22;3460;52.028;8.916;2023-07-20T10:35:52;20.40;1.00
6843;DHT22;3460;52.028;8.916;2023-07-20T10:38:19;20.40;1.00
6843;DHT22;3460;52.028;8.916;2023-07-20T10:40:55;20.60;1.00
6843;DHT22;3460;52.028;8.916;2023-07-20T10:43:22;20.50;99.90
6843;DHT22;3460;52.028;8.916;2023-07-20T10:45:50;20.80;41.90
6843;DHT22;3460;52.028;8.916;2023-07-20T10:48:18;20.80;1.00
6843;DHT22;3460;52.028;8.916;2023-07-20T10:53:28;21.00;1.00
6843;DHT22;3460;52.028;8.916;2023-07-20T10:56:07;20.80;1.00
6843;DHT22;3460;52.028;8.916;2023-07-20T10:58:34;20.60;1.00
6843;DHT22;3460;52.028;8.916;2023-07-20T11:01:03;20.30;1.00
6843;DHT22;3460;52.028;8.916;2023-07-20T11:03:33;20.00;1.00
6843;DHT22;3460;52.028;8.916;2023-07-20T11:06:29;19.80;1.00
6843;DHT22;3460;52.028;8.916;2023-07-20T11:09:05;19.60;19.30
6843;DHT22;3460;52.028;8.916;2023-07-20T11:11:35;19.60;87.30
6843;DHT22;3460;52.028;8.916;2023-07-20T11:14:04;19.60;84.40
6843;DHT22;3460;52.028;8.916;2023-07-20T11:16:40;19.80;99.90
6843;DHT22;3460;52.028;8.916;2023-07-20T11:19:14;20.00;59.00
6843;DHT22;3460;52.028;8.916;2023-07-20T11:21:44;20.00;47.10
6843;DHT22;3460;52.028;8.916;2023-07-20T11:24:11;20.10;1.00
6843;DHT22;3460;52.028;8.916;2023-07-20T11:26:47;20.00;37.60
6843;DHT22;3460;52.028;8.916;2023-07-20T11:29:16;20.30;1.00
6843;DHT22;3460;52.028;8.916;2023-07-20T11:31:44;20.30;1.00
6843;DHT22;3460;52.028;8.916;2023-07-20T11:34:12;20.30;1.00
6843;DHT22;3460;52.028;8.916;2023-07-20T11:36:40;20.30;1.00
6843;DHT22;3460;52.028;8.916;2023-07-20T11:39:08;20.10;1.00
6843;DHT22;3460;52.028;8.916;2023-07-20T11:41:36;20.00;1.00
6843;DHT22;3460;52.028;8.916;2023-07-20T11:44:05;20.20;1.00
6843;DHT22;3460;52.028;8.916;2023-07-20T11:46:33;20.10;1.00
6843;DHT22;3460;52.028;8.916;2023-07-20T11:49:01;20.00;1.00
6843;DHT22;3460;52.028;8.916;2023-07-20T11:51:29;20.10;1.00
6843;DHT22;3460;52.028;8.916;2023-07-20T11:53:56;20.20;1.00
6843;DHT22;3460;52.028;8.916;2023-07-20T11:56:24;20.40;1.00
6843;DHT22;3460;52.028;8.916;2023-07-20T11:58:54;20.80;1.00
6843;DHT22;3460;52.028;8.916;2023-07-20T12:01:23;21.00;1.00
6843;DHT22;3460;52.028;8.916;2023-07-20T12:03:50;21.10;1.00
6843;DHT22;3460;52.028;8.916;2023-07-20T12:06:17;21.10;99.90
6843;DHT22;3460;52.028;8.916;2023-07-20T12:08:44;21.10;99.90
6843;DHT22;3460;52.028;8.916;2023-07-20T12:11:11;21.30;1.00
6843;DHT22;3460;52.028;8.916;2023-07-20T12:13:39;21.40;99.90
6843;DHT22;3460;52.028;8.916;2023-07-20T12:16:12;21.60;99.90
6843;DHT22;3460;52.028;8.916;2023-07-20T12:18:42;21.40;1.00
6843;DHT22;3460;52.028;8.916;2023-07-20T12:21:09;21.50;99.90
6843;DHT22;3460;52.028;8.916;2023-07-20T12:23:38;21.60;99.90
6843;DHT22;3460;52.028;8.916;2023-07-20T12:26:06;21.70;99.90
6843;DHT22;3460;52.028;8.916;2023-07-20T12:28:38;21.70;99.90
6843;DHT22;3460;52.028;8.916;2023-07-20T12:31:05;21.90;99.90
6843;DHT22;3460;52.028;8.916;2023-07-20T12:33:32;22.00;99.90
6843;DHT22;3460;52.028;8.916;2023-07-20T12:36:00;22.20;99.90
6843;DHT22;3460;52.028;8.916;2023-07-20T12:38:27;22.30;99.90
6843;DHT22;3460;52.028;8.916;2023-07-20T12:40:54;22.40;99.90
6843;DHT22;3460;52.028;8.916;2023-07-20T12:43:21;22.30;99.90
6843;DHT22;3460;52.028;8.916;2023-07-20T12:45:48;22.50;99.90
6843;DHT22;3460;52.028;8.916;2023-07-20T12:48:15;22.50;99.90
6843;DHT22;3460;52.028;8.916;2023-07-20T12:50:42;22.40;99.90
6843;DHT22;3460;52.028;8.916;2023-07-20T12:53:10;22.40;99.90
6843;DHT22;3460;52.028;8.916;2023-07-20T12:55:37;22.30;99.90
6843;DHT22;3460;52.028;8.916;2023-07-20T12:58:05;22.50;99.90
6843;DHT22;3460;52.028;8.916;2023-07-20T13:00:32;22.60;99.90
6843;DHT22;3460;52.028;8.916;2023-07-20T13:02:58;22.60;99.90
6843;DHT22;3460;52.028;8.916;2023-07-20T13:05:27;22.70;99.90
6843;DHT22;3460;52.028;8.916;2023-07-20T13:07:54;22.80;99.90
6843;DHT22;3460;52.028;8.916;2023-07-20T13:10:22;22.80;99.90
6843;DHT22;3460;52.028;8.916;2023-07-20T13:12:49;22.50;99.90
6843;DHT22;3460;52.028;8.916;2023-07-20T13:15:17;22.30;91.00
6843;DHT22;3460;52.028;8.916;2023-07-20T13:17:44;22.10;99.90
6843;DHT22;3460;52.028;8.916;2023-07-20T13:20:11;21.90;99.90
6843;DHT22;3460;52.028;8.916;2023-07-20T13:22:39;21.80;99.90
6843;DHT22;3460;52.028;8.916;2023-07-20T13:25:07;21.80;99.90
6843;DHT22;3460;52.028;8.916;2023-07-20T13:27:36;21.70;99.90
6843;DHT22;3460;52.028;8.916;2023-07-20T13:30:04;21.60;99.90
6843;DHT22;3460;52.028;8.916;2023-07-20T13:32:32;21.60;99.90
6843;DHT22;3460;52.028;8.916;2023-07-20T13:34:59;21.70;99.90
6843;DHT22;3460;52.028;8.916;2023-07-20T13:37:26;21.60;1.00
6843;DHT22;3460;52.028;8.916;2023-07-20T13:39:52;21.60;99.90
6843;DHT22;3460;52.028;8.916;2023-07-20T13:42:19;21.40;99.90
6843;DHT22;3460;52.028;8.916;2023-07-20T13:44:48;21.40;99.90
6843;DHT22;3460;52.028;8.916;2023-07-20T13:47:15;21.60;1.00
6843;DHT22;3460;52.028;8.916;2023-07-20T13:49:43;21.80;99.90
6843;DHT22;3460;52.028;8.916;2023-07-20T13:52:10;22.00;99.90
6843;DHT22;3460;52.028;8.916;2023-07-20T13:54:37;22.10;99.90
6843;DHT22;3460;52.028;8.916;2023-07-20T13:57:04;21.90;99.90
6843;DHT22;3460;52.028;8.916;2023-07-20T13:59:31;21.70;99.90
6843;DHT22;3460;52.028;8.916;2023-07-20T14:01:59;21.50;99.90
6843;DHT22;3460;52.028;8.916;2023-07-20T14:04:26;21.80;99.90
6843;DHT22;3460;52.028;8.916;2023-07-20T14:06:54;22.00;99.90
6843;DHT22;3460;52.028;8.916;2023-07-20T14:09:21;22.00;99.90
6843;DHT22;3460;52.028;8.916;2023-07-20T14:11:48;21.90;99.90
6843;DHT22;3460;52.028;8.916;2023-07-20T14:14:15;21.50;99.90
6843;DHT22;3460;52.028;8.916;2023-07-20T14:16:42;21.30;99.90
6843;DHT22;3460;52.028;8.916;2023-07-20T14:19:10;21.30;99.90
6843;DHT22;3460;52.028;8.916;2023-07-20T14:21:38;21.20;99.90
6843;DHT22;3460;52.028;8.916;2023-07-20T14:24:05;21.20;99.90
6843;DHT22;3460;52.028;8.916;2023-07-20T14:26:32;21.20;99.90
6843;DHT22;3460;52.028;8.916;2023-07-20T14:28:58;21.20;99.90
6843;DHT22;3460;52.028;8.916;2023-07-20T14:31:25;21.40;99.90
6843;DHT22;3460;52.028;8.916;2023-07-20T14:33:52;21.40;99.90
6843;DHT22;3460;52.028;8.916;2023-07-20T14:36:20;21.50;99.90
6843;DHT22;3460;52.028;8.916;2023-07-20T14:38:48;21.40;99.90
6843;DHT22;3460;52.028;8.916;2023-07-20T14:41:15;21.30;99.90
6843;DHT22;3460;52.028;8.916;2023-07-20T14:43:41;21.30;99.90
6843;DHT22;3460;52.028;8.916;2023-07-20T14:46:08;21.50;99.90
6843;DHT22;3460;52.028;8.916;2023-07-20T14:48:35;21.70;99.90
6843;DHT22;3460;52.028;8.916;2023-07-20T14:51:02;21.70;99.90
6843;DHT22;3460;52.028;8.916;2023-07-20T14:53:31;21.70;99.90
6843;DHT22;3460;52.028;8.916;2023-07-20T14:55:59;21.70;99.90
6843;DHT22;3460;52.028;8.916;2023-07-20T14:58:26;21.60;99.90
6843;DHT22;3460;52.028;8.916;2023-07-20T15:00:53;21.40;99.90
6843;DHT22;3460;52.028;8.916;2023-07-20T15:03:20;21.40;99.90
6843;DHT22;3460;52.028;8.916;2023-07-20T15:05:47;21.30;99.90
6843;DHT22;3460;52.028;8.916;2023-07-20T15:08:13;21.00;99.90
6843;DHT22;3460;52.028;8.916;2023-07-20T15:10:41;21.00;1.00
6843;DHT22;3460;52.028;8.916;2023-07-20T15:13:12;20.90;99.90
6843;DHT22;3460;52.028;8.916;2023-07-20T15:15:38;20.80;1.00
6843;DHT22;3460;52.028;8.916;2023-07-20T15:18:05;20.70;1.00
6843;DHT22;3460;52.028;8.916;2023-07-20T15:20:32;20.60;99.90
6843;DHT22;3460;52.028;8.916;2023-07-20T15:22:59;20.70;1.00
6843;DHT22;3460;52.028;8.916;2023-07-20T15:25:26;20.70;1.00
6843;DHT22;3460;52.028;8.916;2023-07-20T15:27:55;20.60;1.00
6843;DHT22;3460;52.028;8.916;2023-07-20T15:30:22;20.50;1.00
6843;DHT22;3460;52.028;8.916;2023-07-20T15:32:49;20.50;1.00
6843;DHT22;3460;52.028;8.916;2023-07-20T15:35:16;20.60;1.00
6843;DHT22;3460;52.028;8.916;2023-07-20T15:37:43;20.70;1.00
6843;DHT22;3460;52.028;8.916;2023-07-20T15:40:11;20.80;1.00
6843;DHT22;3460;52.028;8.916;2023-07-20T15:42:38;20.80;1.00
6843;DHT22;3460;52.028;8.916;2023-07-20T15:45:08;20.90;1.00
6843;DHT22;3460;52.028;8.916;2023-07-20T15:47:35;21.10;1.00
6843;DHT22;3460;52.028;8.916;2023-07-20T15:50:02;21.20;1.00
6843;DHT22;3460;52.028;8.916;2023-07-20T15:52:28;21.20;1.00
6843;DHT22;3460;52.028;8.916;2023-07-20T15:54:55;21.10;1.00
6843;DHT22;3460;52.028;8.916;2023-07-20T15:57:23;21.10;1.00
6843;DHT22;3460;52.028;8.916;2023-07-20T15:59:50;21.00;1.00
6843;DHT22;3460;52.028;8.916;2023-07-20T16:02:18;21.10;1.00
6843;DHT22;3460;52.028;8.916;2023-07-20T16:04:44;21.10;1.00
6843;DHT22;3460;52.028;8.916;2023-07-20T16:07:12;21.10;1.00
6843;DHT22;3460;52.028;8.916;2023-07-20T16:09:38;21.10;1.00
6843;DHT22;3460;52.028;8.916;2023-07-20T16:12:06;21.10;1.00